Terminal Aerodrome Forecast
Issued by NWS

Home | Current Version | Previous Version | Text Only | Print | Product List | Glossary On
Versions: 1 2 3 4 5 6 7 8 9 10 11 12 13 14 15 16 17 18 19 20 21 22 23 24 25 26
000
FTAK31 PANC 242326
TAFAAQ
TAF
PAAQ 242326Z 2500/2524 VRB05KT P6SM VCSH SCT050 OVC080
     FM250300 VRB05KT P6SM -SHRA BKN050
     FM250800 VRB03KT 6SM -RA BR SCT025 OVC040
     FM251500 VRB03KT 5SM -RA BR SCT015 OVC025=

USA.gov is the U.S. government's official web portal to all federal, state and local government web resources and services.